createdAt,value
2022-09-12T06:22:30.000Z,19.669495
2022-09-12T06:22:50.000Z,19.609070
2022-09-12T06:23:11.000Z,19.528503
2022-09-12T06:23:31.000Z,19.447937
2022-09-12T06:23:53.000Z,19.337158
2022-09-12T06:24:13.000Z,19.226379
2022-09-12T06:24:33.000Z,19.145813
2022-09-12T06:24:53.000Z,19.024963
2022-09-12T06:25:14.000Z,18.934326
2022-09-12T06:25:34.000Z,18.843689
2022-09-12T06:25:54.000Z,18.742981
2022-09-12T06:26:14.000Z,18.652344
2022-09-12T06:26:35.000Z,18.561707
2022-09-12T06:26:55.000Z,18.471069
2022-09-12T06:27:15.000Z,18.380432
2022-09-12T06:27:35.000Z,18.289795
2022-09-12T06:27:56.000Z,18.209229
2022-09-12T06:28:16.000Z,18.168945
2022-09-12T06:28:36.000Z,18.108521
2022-09-12T06:28:56.000Z,18.088379
2022-09-12T06:29:17.000Z,18.088379
2022-09-12T06:29:37.000Z,18.088379
2022-09-12T06:29:57.000Z,18.108521
2022-09-12T06:30:17.000Z,18.088379
2022-09-12T06:30:38.000Z,18.068237
2022-09-12T06:30:58.000Z,18.048096
2022-09-12T06:31:18.000Z,18.007812
2022-09-12T06:31:38.000Z,17.987671
2022-09-12T06:31:59.000Z,17.917175
2022-09-12T06:32:19.000Z,17.836609
2022-09-12T06:32:39.000Z,17.826538
2022-09-12T06:32:59.000Z,17.766113
2022-09-12T06:33:20.000Z,17.756042
2022-09-12T06:33:40.000Z,17.796326
2022-09-12T06:34:00.000Z,17.886963
2022-09-12T06:34:20.000Z,17.977600
2022-09-12T06:34:41.000Z,18.068237
2022-09-12T06:35:01.000Z,18.168945
2022-09-12T06:35:21.000Z,18.229370
2022-09-12T06:35:41.000Z,18.289795
2022-09-12T06:36:02.000Z,18.360291
2022-09-12T06:36:22.000Z,18.390503
2022-09-12T06:36:42.000Z,18.460999
2022-09-12T06:37:02.000Z,18.501282
2022-09-12T06:37:23.000Z,18.541565
2022-09-12T06:37:43.000Z,18.561707
2022-09-12T06:38:03.000Z,18.561707
2022-09-12T06:38:24.000Z,18.591919
2022-09-12T06:38:44.000Z,18.662415
2022-09-12T06:39:04.000Z,18.763123
2022-09-12T06:39:24.000Z,18.793335
2022-09-12T06:39:45.000Z,18.793335
2022-09-12T06:40:05.000Z,18.823547
2022-09-12T06:40:25.000Z,18.823547
2022-09-12T06:40:45.000Z,18.823547
2022-09-12T06:41:06.000Z,18.823547
2022-09-12T06:41:26.000Z,18.823547
2022-09-12T06:41:46.000Z,18.753052
2022-09-12T06:42:07.000Z,18.692627
2022-09-12T06:42:27.000Z,18.622131
2022-09-12T06:42:47.000Z,18.541565
2022-09-12T06:43:07.000Z,18.460999
2022-09-12T06:43:28.000Z,18.460999
2022-09-12T06:43:48.000Z,18.420715
2022-09-12T14:39:14.000Z,22.630310
2022-09-12T14:39:34.000Z,22.660522
2022-09-12T14:39:55.000Z,22.660522
2022-09-12T14:40:15.000Z,22.660522
2022-09-12T14:40:39.000Z,22.640381
2022-09-12T14:40:59.000Z,22.640381
2022-09-12T14:41:45.000Z,22.610168
2022-09-12T14:42:32.000Z,22.569885
2022-09-12T14:43:12.000Z,22.559814
